Time;durP1;ratioP1;P1;durP2;ratioP2;P2;SDS_P1;SDS_P2;PMS_P1;PMS_P2;Temp;Humidity;BMP_temperature;BMP_pressure;BME280_temperature;BME280_humidity;BME280_pressure;Samples;Min_cycle;Max_cycle;Signal;HPM_P1;HPM_P2
2022/02/27 00:00:44;;;;;;;12.78;6.05;;;;;;;4.70;53.74;100766.55;1779972;79;20965;-39
2022/02/27 00:03:11;;;;;;;11.75;5.50;;;;;;;4.67;53.82;100766.33;1807104;79;21370;-40
2022/02/27 00:05:38;;;;;;;11.75;5.30;;;;;;;4.64;53.86;100769.05;1807196;78;21098;-40
2022/02/27 00:08:04;;;;;;;14.35;6.03;;;;;;;4.63;53.88;100767.98;1772054;79;20989;-40
2022/02/27 00:10:31;;;;;;;14.83;5.65;;;;;;;4.61;53.89;100770.95;1770060;80;20936;-40
2022/02/27 00:12:57;;;;;;;13.62;5.33;;;;;;;4.59;53.91;100770.45;1774742;79;21056;-40
2022/02/27 00:15:24;;;;;;;14.20;5.30;;;;;;;4.57;53.94;100770.46;1794347;79;21073;-40
2022/02/27 00:17:51;;;;;;;12.53;5.17;;;;;;;4.55;53.96;100769.97;1794177;79;21128;-40
2022/02/27 00:20:18;;;;;;;12.53;5.75;;;;;;;4.51;54.07;100768.37;1788217;79;20995;-40
2022/02/27 00:22:45;;;;;;;11.83;5.03;;;;;;;4.52;54.13;100766.48;1777681;79;21032;-40
2022/02/27 00:25:14;;;;;;;13.53;5.35;;;;;;;4.51;54.21;100772.39;1779818;79;21451;-40
2022/02/27 00:27:40;;;;;;;12.10;5.50;;;;;;;4.50;54.28;100779.41;1793754;79;20984;-40
2022/02/27 00:30:09;;;;;;;12.90;5.85;;;;;;;4.50;54.40;100772.16;1796221;79;21872;-40
2022/02/27 00:32:37;;;;;;;15.05;5.65;;;;;;;4.50;54.35;100775.39;1777148;79;21290;-40
2022/02/27 00:35:06;;;;;;;13.68;5.10;;;;;;;4.49;54.39;100775.13;1786688;79;21099;-40
2022/02/27 00:37:34;;;;;;;14.75;5.75;;;;;;;4.48;54.48;100768.14;1737235;82;21017;-40
2022/02/27 00:40:01;;;;;;;12.13;5.17;;;;;;;4.47;54.56;100772.71;1739151;81;21080;-40
2022/02/27 00:42:29;;;;;;;9.43;5.10;;;;;;;4.47;54.59;100772.71;1728342;82;21144;-40
2022/02/27 00:44:56;;;;;;;13.30;5.45;;;;;;;4.46;54.42;100768.42;1735992;82;21529;-40
2022/02/27 00:47:22;;;;;;;14.50;5.35;;;;;;;4.44;54.52;100765.77;1742183;81;21053;-40
2022/02/27 00:49:50;;;;;;;12.70;5.65;;;;;;;4.44;54.53;100769.27;1738861;81;21072;-40
2022/02/27 00:52:22;;;;;;;9.43;5.05;;;;;;;4.44;54.55;100765.23;1760370;81;21013;-40
2022/02/27 00:54:48;;;;;;;12.33;5.70;;;;;;;4.45;54.59;100767.38;1747139;81;21197;-40
2022/02/27 00:57:15;;;;;;;11.57;4.95;;;;;;;4.45;54.57;100767.38;1767709;80;20989;-40
2022/02/27 00:59:44;;;;;;;12.78;5.08;;;;;;;4.44;54.60;100757.18;1729259;81;21533;-40
2022/02/27 01:02:12;;;;;;;10.20;4.87;;;;;;;4.42;54.65;100762.02;1758220;80;20966;-40
2022/02/27 01:04:38;;;;;;;10.13;4.60;;;;;;;4.40;54.69;100755.34;1767370;81;20931;-39
2022/02/27 01:07:05;;;;;;;14.05;5.10;;;;;;;4.38;54.75;100760.45;1760118;81;21072;-40
2022/02/27 01:09:34;;;;;;;12.07;5.58;;;;;;;4.36;54.86;100757.78;1763988;80;21017;-40
2022/02/27 01:12:00;;;;;;;11.20;5.30;;;;;;;4.34;54.78;100763.99;1736154;82;21523;-40
2022/02/27 01:14:29;;;;;;;12.70;4.62;;;;;;;4.30;54.86;100760.28;1723602;82;21488;-40
2022/02/27 01:16:59;;;;;;;13.83;5.30;;;;;;;4.26;54.87;100758.68;1737218;82;21145;-40
2022/02/27 01:19:25;;;;;;;11.38;5.30;;;;;;;4.22;55.03;100756.84;1729535;82;22246;-40
2022/02/27 01:21:54;;;;;;;10.78;5.05;;;;;;;4.18;55.14;100763.33;1721859;81;21056;-40
2022/02/27 01:24:21;;;;;;;11.10;5.58;;;;;;;4.12;55.24;100758.28;1728388;81;21008;-40
2022/02/27 01:26:49;;;;;;;12.47;5.20;;;;;;;4.10;55.38;100760.46;1723201;82;21128;-40
2022/02/27 01:29:15;;;;;;;12.40;5.55;;;;;;;4.06;55.50;100748.16;1740871;82;21866;-40
2022/02/27 01:31:43;;;;;;;17.30;7.53;;;;;;;4.01;55.62;100750.88;1716256;82;21854;-40
2022/02/27 01:34:10;;;;;;;16.20;8.58;;;;;;;3.94;55.66;100749.05;1714733;83;21051;-40
2022/02/27 01:36:37;;;;;;;19.55;8.95;;;;;;;3.88;55.82;100752.31;1724569;81;21045;-39
2022/02/27 01:39:04;;;;;;;27.27;11.20;;;;;;;3.83;55.89;100754.23;1742721;81;21767;-39
2022/02/27 01:41:32;;;;;;;28.00;12.03;;;;;;;3.79;56.07;100747.30;1715179;82;21040;-39
2022/02/27 01:43:59;;;;;;;35.85;12.20;;;;;;;3.76;56.15;100745.18;1716292;82;21171;-39
2022/02/27 01:46:25;;;;;;;28.20;12.50;;;;;;;3.72;56.23;100742.80;1729427;82;20961;-40
2022/02/27 01:48:52;;;;;;;35.50;14.05;;;;;;;3.68;56.21;100748.44;1723563;82;20981;-39
2022/02/27 01:51:18;;;;;;;36.40;14.90;;;;;;;3.65;56.33;100739.63;1737111;82;21551;-39
2022/02/27 01:53:45;;;;;;;38.65;17.10;;;;;;;3.62;56.35;100741.53;1755676;81;21038;-40
2022/02/27 01:56:12;;;;;;;34.15;15.25;;;;;;;3.58;56.47;100740.50;1730697;82;21853;-39
2022/02/27 01:58:38;;;;;;;33.63;14.15;;;;;;;3.56;56.61;100733.80;1743304;80;21097;-39
2022/02/27 02:01:05;;;;;;;31.05;13.48;;;;;;;3.52;56.69;100736.78;1745335;81;20991;-40
2022/02/27 02:03:32;;;;;;;32.10;12.37;;;;;;;3.48;56.83;100733.33;1723476;82;21518;-40
2022/02/27 02:06:00;;;;;;;22.70;11.25;;;;;;;3.44;56.87;100734.13;1747615;81;21061;-40
2022/02/27 02:08:27;;;;;;;24.18;11.40;;;;;;;3.40;56.99;100735.77;1742238;81;21903;-39
2022/02/27 02:10:54;;;;;;;28.57;12.23;;;;;;;3.36;57.05;100737.41;1715423;82;22224;-39
2022/02/27 02:13:21;;;;;;;24.05;10.93;;;;;;;3.33;57.17;100733.95;1724423;82;21048;-40
2022/02/27 02:15:57;;;;;;;24.67;10.18;;;;;;;3.31;57.19;100737.45;1740185;80;21025;-39
2022/02/27 02:18:25;;;;;;;25.02;10.03;;;;;;;3.27;57.27;100737.20;1745552;81;21244;-39
2022/02/27 02:20:53;;;;;;;21.80;9.55;;;;;;;3.24;57.43;100739.11;1709216;82;21548;-39
2022/02/27 02:23:20;;;;;;;25.40;10.00;;;;;;;3.23;57.53;100742.06;1748136;81;21034;-39
2022/02/27 02:25:47;;;;;;;21.75;10.23;;;;;;;3.20;57.55;100738.03;1744843;81;21105;-39
2022/02/27 02:28:14;;;;;;;25.17;10.48;;;;;;;3.19;57.63;100744.50;1719749;82;21101;-40
2022/02/27 02:30:41;;;;;;;19.90;8.95;;;;;;;3.19;57.64;100746.38;1777801;79;21095;-40
2022/02/27 02:33:08;;;;;;;20.97;9.18;;;;;;;3.16;57.74;100741.55;1776017;79;21699;-39
2022/02/27 02:35:34;;;;;;;21.85;8.95;;;;;;;3.12;57.78;100742.64;1731334;82;21015;-39
2022/02/27 02:38:02;;;;;;;17.92;7.95;;;;;;;3.10;57.75;100744.78;1781576;79;21062;-39
2022/02/27 02:40:31;;;;;;;16.15;7.95;;;;;;;3.09;57.83;100751.25;1755148;79;21006;-39
2022/02/27 02:43:00;;;;;;;20.52;8.45;;;;;;;3.10;57.97;100754.73;1774122;79;21097;-39
2022/02/27 02:45:26;;;;;;;16.00;7.65;;;;;;;3.05;58.11;100749.63;1796249;79;22150;-39
2022/02/27 02:47:56;;;;;;;19.62;9.03;;;;;;;3.05;58.22;100754.19;1774489;79;20904;-39
2022/02/27 02:50:23;;;;;;;24.95;11.22;;;;;;;3.04;58.18;100755.29;1791950;79;21000;-39
2022/02/27 02:52:51;;;;;;;32.33;15.18;;;;;;;3.02;58.24;100758.23;1790988;79;21465;-40
2022/02/27 02:55:20;;;;;;;34.73;15.38;;;;;;;3.01;58.31;100758.50;1786308;79;21094;-40
2022/02/27 02:57:46;;;;;;;33.67;14.28;;;;;;;2.99;58.26;100756.11;1770679;79;21161;-40
2022/02/27 03:00:14;;;;;;;30.57;13.35;;;;;;;2.98;58.27;100760.40;1766731;79;20970;-40
2022/02/27 03:02:40;;;;;;;23.32;10.58;;;;;;;2.97;58.43;100762.27;1765164;79;21008;-40
2022/02/27 03:05:09;;;;;;;24.90;9.78;;;;;;;2.96;58.40;100763.34;1777799;79;21104;-40
2022/02/27 03:07:38;;;;;;;19.40;8.93;;;;;;;2.93;58.47;100766.58;1784223;79;21084;-40
2022/02/27 03:10:06;;;;;;;17.67;8.63;;;;;;;2.92;58.55;100767.65;1790302;79;21154;-40
2022/02/27 03:12:33;;;;;;;18.73;7.80;;;;;;;2.90;58.64;100772.50;1777008;79;21714;-40
2022/02/27 03:15:00;;;;;;;19.50;8.53;;;;;;;2.86;58.85;100772.75;1779433;79;21009;-40
2022/02/27 03:17:28;;;;;;;17.67;7.92;;;;;;;2.83;58.75;100770.64;1796072;79;20950;-40
2022/02/27 03:19:56;;;;;;;18.52;7.95;;;;;;;2.82;58.72;100779.73;1796141;79;20985;-40
2022/02/27 03:22:24;;;;;;;19.67;8.23;;;;;;;2.79;58.85;100783.51;1787895;79;21099;-40
2022/02/27 03:24:51;;;;;;;15.53;7.30;;;;;;;2.76;58.88;100786.17;1780129;79;20937;-40
2022/02/27 03:27:18;;;;;;;14.45;6.58;;;;;;;2.74;58.95;100791.02;1779353;79;20943;-39
2022/02/27 03:29:45;;;;;;;13.35;7.58;;;;;;;2.72;58.91;100787.80;1783281;79;21041;-40
2022/02/27 03:32:11;;;;;;;14.20;7.35;;;;;;;2.69;59.12;100792.91;1779212;79;21000;-40
2022/02/27 03:34:38;;;;;;;21.70;8.20;;;;;;;2.70;59.27;100791.30;1797617;79;21164;-40
2022/02/27 03:37:05;;;;;;;17.17;8.00;;;;;;;2.70;59.45;100796.66;1789832;79;20993;-40
2022/02/27 03:39:31;;;;;;;17.65;7.75;;;;;;;2.68;59.71;100798.80;1793432;79;21053;-40
2022/02/27 03:41:58;;;;;;;15.83;6.83;;;;;;;2.69;60.02;100804.95;1780094;79;21017;-40
2022/02/27 03:44:25;;;;;;;17.52;7.53;;;;;;;2.70;60.23;100799.87;1793924;79;21009;-39
2022/02/27 03:46:51;;;;;;;15.83;7.35;;;;;;;2.74;60.29;100800.39;1795650;79;21818;-40
2022/02/27 03:49:18;;;;;;;17.45;8.70;;;;;;;2.79;60.31;100808.41;1792683;79;20997;-40
2022/02/27 03:51:44;;;;;;;24.77;10.70;;;;;;;2.82;60.38;100813.75;1784272;79;21017;-39
2022/02/27 03:54:11;;;;;;;24.82;11.05;;;;;;;2.82;60.39;100810.53;1715607;82;21015;-40
2022/02/27 03:56:38;;;;;;;24.18;11.08;;;;;;;2.81;60.47;100808.92;1754302;81;21033;-39
2022/02/27 03:59:04;;;;;;;25.37;11.90;;;;;;;2.86;60.47;100811.59;1768232;81;21113;-39
2022/02/27 04:01:31;;;;;;;28.87;12.90;;;;;;;2.88;60.54;100816.69;1759402;81;21050;-39
2022/02/27 04:04:00;;;;;;;31.30;13.25;;;;;;;2.92;60.56;100817.20;1735417;81;21084;-40
2022/02/27 04:06:26;;;;;;;33.50;13.80;;;;;;;2.95;60.55;100819.89;1747317;81;21004;-39
2022/02/27 04:08:53;;;;;;;26.75;12.37;;;;;;;2.97;60.49;100822.55;1730935;82;21082;-40
2022/02/27 04:11:20;;;;;;;22.37;10.15;;;;;;;2.98;60.55;100826.84;1730689;81;21674;-40
2022/02/27 04:13:47;;;;;;;22.75;10.78;;;;;;;3.01;60.58;100822.80;1749657;81;20992;-39
2022/02/27 04:16:14;;;;;;;20.95;10.28;;;;;;;3.04;60.58;100823.07;1755210;81;21548;-39
2022/02/27 04:18:40;;;;;;;26.30;12.23;;;;;;;3.05;60.51;100817.95;1732671;81;21009;-40
2022/02/27 04:21:07;;;;;;;32.83;14.23;;;;;;;3.06;60.57;100822.78;1738206;82;21100;-40
2022/02/27 04:23:33;;;;;;;34.70;15.18;;;;;;;3.09;60.53;100822.78;1756934;81;21607;-39
2022/02/27 04:26:00;;;;;;;32.67;14.23;;;;;;;3.04;60.54;100828.43;1750267;81;21060;-39
2022/02/27 04:28:27;;;;;;;32.45;14.45;;;;;;;3.02;60.72;100830.56;1761564;80;20985;-39
2022/02/27 04:30:53;;;;;;;30.37;13.88;;;;;;;3.05;60.79;100839.92;1730056;82;21585;-39
2022/02/27 04:33:20;;;;;;;28.62;13.95;;;;;;;3.05;60.86;100834.03;1710316;82;21559;-39
2022/02/27 04:35:48;;;;;;;28.70;12.93;;;;;;;3.06;60.93;100839.66;1746930;81;21159;-40
2022/02/27 04:38:14;;;;;;;24.25;12.60;;;;;;;3.10;60.98;100837.79;1793556;78;21593;-40
2022/02/27 04:40:41;;;;;;;24.25;12.03;;;;;;;3.12;61.08;100840.45;1783660;80;21850;-39
2022/02/27 04:43:08;;;;;;;25.35;12.37;;;;;;;3.14;61.02;100842.33;1809989;78;21553;-39
2022/02/27 04:45:34;;;;;;;23.80;11.95;;;;;;;3.14;61.01;100839.65;1790541;78;21052;-39
2022/02/27 04:48:01;;;;;;;23.73;12.55;;;;;;;3.18;61.09;100838.02;1786131;78;21185;-40
2022/02/27 04:50:28;;;;;;;26.42;13.08;;;;;;;3.20;61.07;100840.41;1791020;79;21526;-39
2022/02/27 04:52:55;;;;;;;26.85;12.78;;;;;;;3.20;61.07;100843.08;1784350;79;20969;-40
2022/02/27 04:55:22;;;;;;;24.25;12.05;;;;;;;3.21;61.18;100843.35;1803959;79;21052;-40
2022/02/27 04:57:48;;;;;;;25.27;12.60;;;;;;;3.24;61.13;100842.83;1793077;79;21040;-40
2022/02/27 05:00:17;;;;;;;24.50;11.95;;;;;;;3.26;61.16;100844.67;1798264;78;21095;-39
2022/02/27 05:02:43;;;;;;;21.12;11.18;;;;;;;3.26;61.23;100843.33;1801605;79;20948;-40
2022/02/27 05:05:10;;;;;;;22.87;11.10;;;;;;;3.28;61.27;100853.25;1811007;79;21566;-41
2022/02/27 05:07:37;;;;;;;22.85;10.05;;;;;;;3.27;61.08;100849.77;1748223;82;21060;-40
2022/02/27 05:10:08;;;;;;;20.68;10.43;;;;;;;3.25;61.16;100853.78;1744645;82;21018;-40
2022/02/27 05:12:40;;;;;;;19.92;8.83;;;;;;;3.25;61.17;100851.10;1730999;80;21123;-41
2022/02/27 05:15:08;;;;;;;22.00;10.00;;;;;;;3.24;61.31;100853.55;1743171;82;20973;-41
2022/02/27 05:17:35;;;;;;;19.07;9.75;;;;;;;3.24;61.27;100853.55;1790819;79;20961;-41
2022/02/27 05:20:05;;;;;;;18.12;9.18;;;;;;;3.22;61.32;100854.34;1802835;79;21005;-41
2022/02/27 05:22:33;;;;;;;;;;;;;;;3.20;61.34;100848.44;1796876;78;21068;-41
2022/02/27 05:24:59;;;;;;;22.45;9.15;;;;;;;3.17;61.48;100846.32;1782351;79;21053;-41
2022/02/27 05:27:25;;;;;;;14.95;8.10;;;;;;;3.09;61.78;100850.91;1783710;80;20959;-41
2022/02/27 05:29:52;;;;;;;17.87;8.65;;;;;;;3.12;61.80;100848.48;1792874;78;21028;-40
2022/02/27 05:32:18;;;;;;;20.75;9.10;;;;;;;3.16;61.70;100849.54;1791571;79;21523;-41
2022/02/27 05:34:45;;;;;;;17.67;8.65;;;;;;;3.23;61.66;100850.59;1781279;79;21053;-40
2022/02/27 05:37:11;;;;;;;18.37;9.53;;;;;;;3.27;61.53;100847.63;1774402;79;21777;-41
2022/02/27 05:39:38;;;;;;;19.70;8.90;;;;;;;3.31;61.40;100851.36;1778821;79;20954;-41
2022/02/27 05:42:06;;;;;;;16.12;8.88;;;;;;;3.33;61.37;100850.55;1784621;79;20988;-41
2022/02/27 05:44:34;;;;;;;21.13;9.60;;;;;;;3.39;61.28;100852.11;1804589;79;21492;-41
2022/02/27 05:47:03;;;;;;;17.42;8.58;;;;;;;3.43;61.22;100847.83;1769650;79;21161;-40
2022/02/27 05:49:30;;;;;;;22.95;9.85;;;;;;;3.45;61.13;100846.46;1772769;81;21797;-40
2022/02/27 05:51:57;;;;;;;20.20;8.73;;;;;;;3.48;60.92;100851.29;1779227;79;20981;-40
2022/02/27 05:54:24;;;;;;;17.75;8.60;;;;;;;3.50;60.82;100846.97;1773119;79;20966;-40
2022/02/27 05:56:50;;;;;;;17.40;7.97;;;;;;;3.52;60.68;100854.75;1802556;79;21025;-40
2022/02/27 05:59:17;;;;;;;20.35;10.72;;;;;;;3.53;60.50;100849.12;1802815;79;21063;-40
2022/02/27 06:01:44;;;;;;;21.73;11.73;;;;;;;3.50;60.50;100850.46;1801642;79;21824;-40
2022/02/27 06:04:10;;;;;;;18.82;9.80;;;;;;;3.46;60.48;100849.95;1792629;79;20989;-40
2022/02/27 06:06:37;;;;;;;20.57;10.35;;;;;;;3.44;60.63;100856.91;1800335;79;20974;-40
2022/02/27 06:09:04;;;;;;;16.57;8.25;;;;;;;3.48;60.74;100849.14;1776537;79;21022;-40
2022/02/27 06:11:31;;;;;;;16.57;8.45;;;;;;;3.54;60.72;100861.96;1778759;79;20998;-40
2022/02/27 06:13:58;;;;;;;16.07;8.28;;;;;;;3.59;60.66;100856.04;1802151;79;21528;-40
2022/02/27 06:16:25;;;;;;;19.60;8.28;;;;;;;3.65;60.56;100855.48;1796164;79;20977;-40
2022/02/27 06:18:51;;;;;;;16.37;7.33;;;;;;;3.70;60.53;100860.28;1789050;79;21008;-40
2022/02/27 06:21:19;;;;;;;15.78;7.75;;;;;;;3.72;60.33;100860.81;1789275;79;21035;-41
2022/02/27 06:23:45;;;;;;;17.62;8.70;;;;;;;3.75;60.29;100861.59;1781587;79;21018;-40
2022/02/27 06:26:15;;;;;;;14.98;8.38;;;;;;;3.77;60.20;100854.08;1785655;79;21000;-40
2022/02/27 06:28:42;;;;;;;21.65;9.50;;;;;;;3.83;60.19;100862.88;1777951;79;21029;-40
2022/02/27 06:31:09;;;;;;;20.62;10.28;;;;;;;3.86;60.24;100852.95;1775221;79;21055;-40
2022/02/27 06:33:35;;;;;;;18.35;9.70;;;;;;;3.88;60.13;100863.65;1781333;79;21107;-40
2022/02/27 06:36:03;;;;;;;16.93;8.68;;;;;;;3.93;60.19;100864.16;1767614;80;21637;-40
2022/02/27 06:38:30;;;;;;;17.10;8.40;;;;;;;4.00;60.06;100860.63;1776338;79;21144;-40
2022/02/27 06:40:56;;;;;;;16.87;8.28;;;;;;;4.03;59.86;100865.97;1779079;80;21080;-40
2022/02/27 06:43:23;;;;;;;19.02;8.68;;;;;;;4.02;59.86;100867.07;1767635;80;20940;-40
2022/02/27 06:45:49;;;;;;;15.45;7.67;;;;;;;4.02;59.87;100873.21;1772390;79;21063;-40
2022/02/27 06:48:16;;;;;;;16.75;8.00;;;;;;;4.09;59.85;100879.62;1780463;79;21041;-40
2022/02/27 06:50:43;;;;;;;15.03;7.12;;;;;;;4.12;59.59;100874.48;1775334;79;21126;-40
2022/02/27 06:53:10;;;;;;;12.78;6.92;;;;;;;4.18;59.59;100877.40;1767013;80;21574;-40
2022/02/27 06:55:37;;;;;;;15.83;7.08;;;;;;;4.25;59.34;100881.13;1771219;79;21523;-40
2022/02/27 06:58:04;;;;;;;12.60;6.58;;;;;;;4.28;59.17;100881.89;1776925;80;21024;-40
2022/02/27 07:00:31;;;;;;;15.05;6.83;;;;;;;4.33;59.13;100881.86;1772741;80;21279;-40
2022/02/27 07:02:58;;;;;;;10.98;6.28;;;;;;;4.37;58.63;100881.55;1773512;80;22053;-40
2022/02/27 07:05:25;;;;;;;11.35;5.85;;;;;;;4.41;58.46;100885.80;1775470;79;21044;-40
2022/02/27 07:07:52;;;;;;;10.63;5.80;;;;;;;4.43;57.99;100887.14;1774223;80;21012;-40
2022/02/27 07:10:19;;;;;;;15.60;6.15;;;;;;;4.47;57.77;100884.16;1770910;79;21471;-40
2022/02/27 07:12:48;;;;;;;11.22;5.37;;;;;;;4.52;57.68;100881.42;1780407;80;21044;-40
2022/02/27 07:15:15;;;;;;;10.70;4.75;;;;;;;4.58;57.29;100887.56;1780734;80;21116;-40
2022/02/27 07:17:42;;;;;;;9.85;4.53;;;;;;;4.61;57.21;100886.44;1773107;79;21078;-40
2022/02/27 07:20:10;;;;;;;11.50;5.40;;;;;;;4.65;57.06;100884.79;1767262;80;21869;-40
2022/02/27 07:22:37;;;;;;;10.65;5.03;;;;;;;4.71;56.85;100886.35;1772710;79;21599;-40
2022/02/27 07:25:06;;;;;;;10.23;5.53;;;;;;;4.77;56.64;100883.08;1760732;80;21084;-40
2022/02/27 07:27:34;;;;;;;7.90;4.50;;;;;;;4.83;56.50;100884.64;1770299;78;21119;-40
2022/02/27 07:30:01;;;;;;;14.58;5.08;;;;;;;4.90;56.35;100881.60;1783189;78;21020;-40
2022/02/27 07:32:28;;;;;;;9.50;5.35;;;;;;;5.02;55.99;100875.31;1723069;82;21017;-41
2022/02/27 07:34:54;;;;;;;10.18;6.15;;;;;;;5.12;55.34;100880.03;1747190;81;21088;-41
2022/02/27 07:37:21;;;;;;;9.10;5.47;;;;;;;5.19;55.31;100870.27;1797257;79;21476;-40
2022/02/27 07:39:48;;;;;;;7.15;3.90;;;;;;;5.30;54.89;100874.98;1798645;79;21139;-40
2022/02/27 07:42:14;;;;;;;10.38;3.90;;;;;;;5.36;54.08;100872.50;1729877;82;20957;-40
2022/02/27 07:44:41;;;;;;;7.95;3.67;;;;;;;5.40;52.28;100874.86;1732337;82;21036;-40
2022/02/27 07:48:07;;;;;;;8.43;3.25;;;;;;;5.47;51.95;100868.03;1816156;78;22605;-39
2022/02/27 07:50:35;;;;;;;6.28;3.05;;;;;;;5.48;51.71;100868.83;1799424;79;20984;-39
2022/02/27 07:53:02;;;;;;;5.40;2.33;;;;;;;5.62;51.01;100864.34;1774200;79;21133;-39
2022/02/27 07:55:29;;;;;;;6.28;2.70;;;;;;;5.76;49.70;100869.26;1767302;79;20999;-36
2022/02/27 07:57:56;;;;;;;5.25;2.65;;;;;;;5.90;49.46;100872.08;1777251;80;21004;-36
2022/02/27 08:00:23;;;;;;;8.75;4.97;;;;;;;6.07;48.05;100863.73;1785811;79;20961;-36
2022/02/27 08:02:49;;;;;;;4.05;2.20;;;;;;;6.28;47.23;100864.22;1798534;79;20965;-36
2022/02/27 08:05:16;;;;;;;3.58;1.60;;;;;;;6.48;46.26;100866.59;1739626;81;21145;-37
2022/02/27 08:07:43;;;;;;;3.50;2.27;;;;;;;6.62;43.70;100864.47;1709762;82;21010;-36
2022/02/27 08:10:12;;;;;;;3.55;1.67;;;;;;;6.67;42.92;100869.77;1721830;82;20981;-37
2022/02/27 08:12:43;;;;;;;8.43;2.10;;;;;;;6.65;42.00;100866.56;1725474;82;20969;-37
2022/02/27 08:15:12;;;;;;;3.25;1.90;;;;;;;6.57;41.84;100865.36;1736190;82;21088;-37
2022/02/27 08:17:39;;;;;;;3.27;1.80;;;;;;;6.48;41.88;100870.63;1724314;82;21149;-37
2022/02/27 08:20:07;;;;;;;4.60;2.08;;;;;;;6.47;42.16;100870.91;1728743;82;21014;-39
2022/02/27 08:22:36;;;;;;;3.90;1.92;;;;;;;6.50;42.13;100867.08;1739170;82;21662;-39
2022/02/27 08:25:07;;;;;;;4.03;1.92;;;;;;;6.58;41.75;100858.08;1728401;82;21010;-40
2022/02/27 08:27:34;;;;;;;3.60;1.70;;;;;;;6.53;41.56;100864.35;1721072;82;21849;-40
2022/02/27 08:30:00;;;;;;;2.90;1.40;;;;;;;6.42;41.77;100864.27;1711653;82;21108;-39
2022/02/27 08:32:35;;;;;;;3.05;1.80;;;;;;;6.35;40.81;100867.87;1724213;82;21010;-38
2022/02/27 08:35:07;;;;;;;2.95;1.60;;;;;;;6.29;40.69;100859.09;1730727;80;20963;-39
2022/02/27 08:37:34;;;;;;;3.37;1.50;;;;;;;6.27;40.73;100863.96;1730205;82;21295;-40
2022/02/27 08:40:03;;;;;;;3.37;1.98;;;;;;;6.30;41.17;100855.28;1736493;82;21289;-38
2022/02/27 08:42:31;;;;;;;4.97;2.52;;;;;;;6.39;41.11;100851.39;1745561;81;21124;-37
2022/02/27 08:44:58;;;;;;;4.30;1.82;;;;;;;6.48;41.35;100845.58;1734084;82;21554;-37
2022/02/27 08:47:25;;;;;;;4.72;1.98;;;;;;;6.61;40.47;100850.73;1735106;82;20955;-38
2022/02/27 08:49:54;;;;;;;3.42;1.87;;;;;;;6.82;40.16;100846.59;1717234;82;21008;-40
2022/02/27 08:52:21;;;;;;;2.10;1.62;;;;;;;7.01;39.59;100837.87;1707034;82;21046;-40
2022/02/27 08:54:48;;;;;;;3.20;1.72;;;;;;;7.15;39.83;100834.62;1714115;82;21509;-40
2022/02/27 08:57:15;;;;;;;3.17;1.60;;;;;;;7.25;38.71;100839.01;1716655;83;21002;-41
2022/02/27 08:59:42;;;;;;;3.52;2.02;;;;;;;7.25;37.68;100838.45;1715668;82;21577;-39
2022/02/27 09:02:09;;;;;;;5.87;2.00;;;;;;;7.17;37.64;100839.69;1719722;83;21100;-41
2022/02/27 09:04:35;;;;;;;4.53;2.40;;;;;;;7.07;37.94;100841.27;1710301;82;22067;-39
2022/02/27 09:07:03;;;;;;;3.90;1.60;;;;;;;6.98;38.11;100837.09;1726317;82;21112;-39
2022/02/27 09:09:31;;;;;;;5.58;1.67;;;;;;;6.99;38.32;100834.66;1730786;82;21084;-40
2022/02/27 09:11:58;;;;;;;3.95;1.77;;;;;;;7.16;38.75;100828.67;1714898;82;21013;-40
2022/02/27 09:14:26;;;;;;;4.03;2.05;;;;;;;7.55;38.27;100832.17;1721427;82;21048;-39
2022/02/27 09:16:53;;;;;;;4.53;2.20;;;;;;;7.92;37.92;100822.41;1726189;82;21507;-40
2022/02/27 09:19:19;;;;;;;3.33;1.60;;;;;;;8.30;36.65;100833.67;1712285;82;21775;-41
2022/02/27 09:21:46;;;;;;;3.10;1.20;;;;;;;8.63;36.50;100831.48;1742967;81;21033;-40
2022/02/27 09:24:12;;;;;;;2.80;1.42;;;;;;;8.88;35.99;100831.36;1781596;79;21081;-40
2022/02/27 09:26:39;;;;;;;3.50;1.30;;;;;;;9.01;35.44;100822.33;1782537;79;21013;-40
2022/02/27 09:29:06;;;;;;;3.35;1.22;;;;;;;8.80;34.22;100777.49;1780176;80;21010;-40
2022/02/27 09:31:32;;;;;;;4.00;1.40;;;;;;;9.08;34.27;100830.25;1787261;79;21138;-40
2022/02/27 09:33:59;;;;;;;3.65;1.35;;;;;;;9.10;34.10;100829.36;1781967;80;21015;-40
2022/02/27 09:36:26;;;;;;;2.42;1.17;;;;;;;9.25;34.18;100820.02;1779648;79;21070;-40
2022/02/27 09:38:53;;;;;;;2.65;1.40;;;;;;;9.58;33.52;100817.13;1783823;79;21053;-40
2022/02/27 09:41:21;;;;;;;1.65;1.30;;;;;;;9.90;33.05;100817.24;1789145;80;21538;-40
2022/02/27 09:43:56;;;;;;;4.17;1.60;;;;;;;10.10;32.72;100814.44;1783580;79;21121;-40
2022/02/27 09:46:23;;;;;;;4.28;1.90;;;;;;;10.12;32.53;100815.48;1785708;79;21642;-40
2022/02/27 09:48:50;;;;;;;4.35;2.10;;;;;;;10.01;33.28;100821.23;1784161;79;21578;-40
2022/02/27 09:51:16;;;;;;;3.20;1.60;;;;;;;9.92;32.83;100819.05;1781854;79;21033;-40
2022/02/27 09:53:43;;;;;;;3.65;1.67;;;;;;;9.68;33.61;100819.31;1785629;79;21038;-40
2022/02/27 09:56:10;;;;;;;4.22;1.82;;;;;;;9.42;34.50;100816.02;1792560;79;21085;-40
2022/02/27 09:58:38;;;;;;;4.58;2.47;;;;;;;9.30;34.63;100819.07;1789275;79;21462;-40
2022/02/27 10:01:05;;;;;;;3.98;1.75;;;;;;;9.26;34.84;100812.70;1784174;79;21033;-40
2022/02/27 10:03:32;;;;;;;6.83;3.55;;;;;;;9.28;35.18;100811.29;1772837;79;21017;-40
2022/02/27 10:06:04;;;;;;;7.35;2.85;;;;;;;9.32;35.02;100813.60;1779760;79;20983;-40
2022/02/27 10:08:43;;;;;;;15.70;8.30;;;;;;;9.27;34.90;100815.10;1777566;79;21127;-40
2022/02/27 10:11:18;;;;;;;14.30;8.68;;;;;;;9.26;34.19;100810.80;1788656;79;21072;-40
2022/02/27 10:13:51;;;;;;;14.20;8.68;;;;;;;9.06;34.11;100810.82;1782410;79;21010;-40
2022/02/27 10:16:22;;;;;;;15.30;8.45;;;;;;;8.93;34.81;100812.29;1765923;79;20960;-41
2022/02/27 10:18:52;;;;;;;12.37;8.18;;;;;;;8.84;34.51;100812.27;1788855;79;21574;-40
2022/02/27 10:21:36;;;;;;;11.20;6.22;;;;;;;8.88;34.41;100811.08;1781346;79;21041;-40
2022/02/27 10:24:08;;;;;;;9.55;5.92;;;;;;;9.09;34.57;100808.06;1792796;79;21032;-41
2022/02/27 10:26:37;;;;;;;8.73;4.60;;;;;;;9.51;34.12;100800.58;1787550;80;20973;-40
2022/02/27 10:29:13;;;;;;;6.40;3.67;;;;;;;9.87;33.45;100798.12;1792892;79;20899;-40
2022/02/27 10:31:47;;;;;;;6.83;4.45;;;;;;;10.27;32.71;100796.81;1793348;79;20996;-40
2022/02/27 10:34:20;;;;;;;7.17;4.50;;;;;;;10.75;31.87;100788.92;1745113;80;21119;-40
2022/02/27 10:37:09;;;;;;;5.55;3.62;;;;;;;11.18;30.96;100775.94;1790722;79;20969;-40
2022/02/27 10:39:43;;;;;;;7.62;4.30;;;;;;;11.55;29.71;100783.77;1781661;79;20998;-40
2022/02/27 10:42:17;;;;;;;8.45;4.35;;;;;;;11.69;29.79;100784.30;1772474;79;20906;-40
2022/02/27 10:44:56;;;;;;;8.13;4.70;;;;;;;11.84;29.46;100783.48;1772610;79;20954;-41
2022/02/27 10:47:30;;;;;;;9.17;5.30;;;;;;;11.84;29.21;100781.57;1762409;80;21144;-40
2022/02/27 10:50:05;;;;;;;10.03;6.08;;;;;;;11.71;28.91;100784.74;1731970;81;20884;-40
2022/02/27 10:52:32;;;;;;;10.45;5.60;;;;;;;11.42;29.58;100780.76;1740700;81;21705;-40
2022/02/27 10:55:07;;;;;;;8.85;5.33;;;;;;;11.13;29.71;100783.50;1723691;83;21050;-40
2022/02/27 10:57:40;;;;;;;9.60;5.72;;;;;;;10.49;30.52;100722.61;1737399;81;21077;-40
2022/02/27 11:00:19;;;;;;;8.50;4.90;;;;;;;10.70;31.00;100779.61;1721026;82;21125;-40
2022/02/27 11:03:09;;;;;;;11.03;5.58;;;;;;;10.75;31.82;100782.95;1741593;82;21021;-40
2022/02/27 11:05:41;;;;;;;8.95;5.50;;;;;;;11.01;31.03;100772.53;1710893;83;21524;-40
2022/02/27 11:08:10;;;;;;;10.65;5.03;;;;;;;11.18;30.91;100769.15;1720780;83;20987;-40
2022/02/27 11:10:39;;;;;;;9.15;5.17;;;;;;;11.15;30.20;100771.17;1732557;82;21519;-40
2022/02/27 11:13:11;;;;;;;9.85;4.80;;;;;;;10.94;30.55;100781.77;1716857;83;21073;-40
2022/02/27 11:15:38;;;;;;;8.05;4.42;;;;;;;10.63;30.72;100776.07;1719327;82;21015;-40
2022/02/27 11:18:05;;;;;;;8.88;4.22;;;;;;;10.33;31.30;100773.05;1734112;82;21335;-40
2022/02/27 11:20:32;;;;;;;7.37;4.55;;;;;;;10.09;31.88;100772.75;1734864;82;21009;-40
2022/02/27 11:22:59;;;;;;;6.47;3.98;;;;;;;9.96;32.10;100769.91;1717965;82;21021;-40
2022/02/27 11:25:28;;;;;;;8.65;4.30;;;;;;;9.93;32.01;100770.53;1722422;82;21204;-41
2022/02/27 11:28:08;;;;;;;5.75;3.67;;;;;;;10.13;32.21;100760.95;1748234;80;20984;-38